createdAt,value
2018-05-11T00:00:42.848Z,68.62
2018-05-11T00:02:54.093Z,68.67
2018-05-11T00:05:05.328Z,68.62
2018-05-11T00:07:16.482Z,68.44
2018-05-11T00:09:29.703Z,68.45
2018-05-11T00:11:40.874Z,68.56
2018-05-11T00:13:52.014Z,68.84
2018-05-11T00:16:03.149Z,69.31
2018-05-11T00:18:14.251Z,69.29
2018-05-11T00:20:25.397Z,69.59
2018-05-11T00:22:36.630Z,69.51
2018-05-11T00:24:47.774Z,69.67
2018-05-11T00:26:58.933Z,69.50
2018-05-11T00:29:10.103Z,69.49
2018-05-11T00:31:21.280Z,69.48
2018-05-11T00:33:32.531Z,69.60
2018-05-11T00:35:43.712Z,69.39
2018-05-11T00:37:55.673Z,69.44
2018-05-11T00:40:06.959Z,69.55
2018-05-11T00:42:18.221Z,69.56
2018-05-11T00:44:29.428Z,69.30
2018-05-11T00:46:40.634Z,69.66
2018-05-11T00:48:51.759Z,69.74
2018-05-11T00:51:03.015Z,69.80
2018-05-11T00:53:14.071Z,69.66
2018-05-11T00:55:37.215Z,69.68
2018-05-11T00:57:48.367Z,69.58
2018-05-11T00:59:59.475Z,69.41
2018-05-11T01:02:10.600Z,69.32
2018-05-11T01:04:21.755Z,69.35
2018-05-11T01:06:32.934Z,69.18
2018-05-11T01:08:44.091Z,69.26
2018-05-11T01:10:55.263Z,69.51
2018-05-11T01:13:06.599Z,69.76
2018-05-11T01:15:17.726Z,69.94
2018-05-11T01:17:29.126Z,69.81
2018-05-11T01:19:40.347Z,69.74
2018-05-11T01:21:51.508Z,69.85
2018-05-11T01:24:02.740Z,70.01
2018-05-11T01:26:13.949Z,69.88
2018-05-11T01:28:25.127Z,69.73
2018-05-11T01:30:36.214Z,69.52
2018-05-11T01:32:47.359Z,69.46
2018-05-11T01:34:58.516Z,69.36
2018-05-11T01:37:09.620Z,69.15
2018-05-11T01:39:20.858Z,69.13
2018-05-11T01:41:31.999Z,69.23
2018-05-11T01:43:43.271Z,69.60
2018-05-11T01:45:54.434Z,69.51
2018-05-11T01:48:05.552Z,69.34
2018-05-11T01:50:16.719Z,69.26
2018-05-11T01:52:27.831Z,69.14
2018-05-11T01:54:38.971Z,69.52
2018-05-11T01:56:50.067Z,69.38
2018-05-11T01:59:01.234Z,69.25
2018-05-11T02:01:12.500Z,69.53
2018-05-11T02:03:23.628Z,69.98
2018-05-11T02:05:34.907Z,70.02
2018-05-11T02:07:46.093Z,69.99
2018-05-11T02:09:57.263Z,70.06
2018-05-11T02:12:08.517Z,69.97
2018-05-11T02:14:19.648Z,69.90
2018-05-11T02:16:31.120Z,70.19
2018-05-11T02:18:42.282Z,70.79
2018-05-11T02:20:53.378Z,70.74
2018-05-11T02:23:04.496Z,70.68
2018-05-11T02:25:15.599Z,70.69
2018-05-11T02:27:26.739Z,70.51
2018-05-11T02:29:37.864Z,70.15
2018-05-11T02:31:49.041Z,70.02
2018-05-11T02:34:00.147Z,70.11
2018-05-11T02:36:11.419Z,69.90
2018-05-11T02:38:22.851Z,69.70
2018-05-11T02:40:33.961Z,69.66
2018-05-11T02:42:45.071Z,70.06
2018-05-11T02:44:56.186Z,70.26
2018-05-11T02:47:07.371Z,70.41
2018-05-11T02:49:18.451Z,70.30
2018-05-11T02:51:29.568Z,70.27
2018-05-11T02:53:40.720Z,70.16
2018-05-11T02:55:51.811Z,69.93
2018-05-11T02:58:02.995Z,69.85
2018-05-11T03:00:14.134Z,69.78
2018-05-11T03:02:25.260Z,69.80
2018-05-11T03:04:36.409Z,69.95
2018-05-11T03:06:47.515Z,70.10
2018-05-11T03:08:58.656Z,70.12
2018-05-11T03:11:09.794Z,70.03
2018-05-11T03:13:21.076Z,69.91
2018-05-11T03:15:32.193Z,69.77
2018-05-11T03:17:43.343Z,69.62
2018-05-11T03:19:54.528Z,69.54
2018-05-11T03:22:05.636Z,69.62
2018-05-11T03:24:16.996Z,69.55
2018-05-11T03:26:28.179Z,69.66
2018-05-11T03:28:39.303Z,69.62
2018-05-11T03:30:50.375Z,69.89
2018-05-11T03:33:01.487Z,69.95
2018-05-11T03:35:12.639Z,70.01
2018-05-11T03:37:23.752Z,69.97
2018-05-11T03:39:34.888Z,69.94
2018-05-11T03:41:46.123Z,69.72
2018-05-11T03:43:57.253Z,69.91
2018-05-11T03:46:08.407Z,69.79
2018-05-11T03:48:19.554Z,69.77
2018-05-11T03:50:30.726Z,69.48
2018-05-11T03:52:41.848Z,69.59
2018-05-11T03:54:53.090Z,69.67
2018-05-11T03:57:04.216Z,69.71
2018-05-11T03:59:15.357Z,69.96
2018-05-11T04:01:38.559Z,70.03
2018-05-11T04:04:01.718Z,69.81
2018-05-11T04:06:25.856Z,69.59
2018-05-11T04:08:41.619Z,69.80
2018-05-11T04:10:52.763Z,69.89
2018-05-11T04:13:03.891Z,69.80
2018-05-11T04:15:15.029Z,70.08
2018-05-11T04:17:26.187Z,70.16
2018-05-11T04:19:37.391Z,70.11
2018-05-11T04:21:48.527Z,69.96
2018-05-11T04:23:59.691Z,70.23
2018-05-11T04:26:10.935Z,70.37
2018-05-11T04:28:22.100Z,70.36
2018-05-11T04:30:33.367Z,70.39
2018-05-11T04:32:44.475Z,70.33
2018-05-11T04:34:55.637Z,70.27
2018-05-11T04:37:06.748Z,70.28
2018-05-11T04:39:17.836Z,70.05
2018-05-11T04:41:28.957Z,69.65
2018-05-11T04:43:40.035Z,69.91
2018-05-11T04:45:54.610Z,67.99
2018-05-11T04:48:06.839Z,64.90
2018-05-11T04:50:17.969Z,65.35
2018-05-11T04:52:29.107Z,66.35
2018-05-11T04:54:40.227Z,66.65
2018-05-11T04:56:51.357Z,66.75
2018-05-11T04:59:02.455Z,67.00
2018-05-11T05:01:13.711Z,67.16
2018-05-11T05:03:24.836Z,67.05
2018-05-11T05:05:35.981Z,67.45
2018-05-11T05:07:47.190Z,67.05
2018-05-11T05:09:58.327Z,67.18
2018-05-11T05:12:09.476Z,67.00
2018-05-11T05:14:20.660Z,66.98
2018-05-11T05:16:31.864Z,66.73
2018-05-11T05:18:43.096Z,66.24
2018-05-11T05:20:54.286Z,65.68
2018-05-11T05:23:05.471Z,65.67
2018-05-11T05:25:16.588Z,66.03
2018-05-11T05:27:28.588Z,66.17
2018-05-11T05:29:39.730Z,65.79
2018-05-11T05:31:50.942Z,65.54
2018-05-11T05:34:02.162Z,65.33
2018-05-11T05:36:13.533Z,65.40
2018-05-11T05:38:24.658Z,64.53
2018-05-11T05:40:35.876Z,64.08
2018-05-11T05:42:47.280Z,63.61
2018-05-11T05:44:58.380Z,63.16
2018-05-11T05:47:09.493Z,63.02
2018-05-11T05:49:21.419Z,63.40
2018-05-11T05:51:32.498Z,62.58
2018-05-11T05:53:43.630Z,63.07
2018-05-11T05:55:54.770Z,62.62
2018-05-11T05:58:05.863Z,62.33
2018-05-11T06:00:16.962Z,62.89
2018-05-11T06:02:28.069Z,62.91
2018-05-11T06:04:39.389Z,61.96
2018-05-11T06:06:50.478Z,62.21
2018-05-11T06:09:01.635Z,62.09
2018-05-11T06:11:12.742Z,63.08
2018-05-11T06:13:23.982Z,62.88
2018-05-11T06:15:35.202Z,62.47
2018-05-11T06:17:46.398Z,61.09
2018-05-11T06:19:58.295Z,59.23
2018-05-11T06:22:09.498Z,58.73
2018-05-11T06:24:20.696Z,58.64
2018-05-11T06:26:31.930Z,57.66
2018-05-11T06:28:43.120Z,58.64
2018-05-11T06:30:54.299Z,56.53
2018-05-11T06:33:05.578Z,55.27
2018-05-11T06:35:16.703Z,53.15
2018-05-11T06:37:27.906Z,52.05
2018-05-11T06:39:39.102Z,52.74
2018-05-11T06:41:50.231Z,52.01
2018-05-11T06:44:01.495Z,52.09
2018-05-11T06:46:12.707Z,51.50
2018-05-11T06:48:23.903Z,51.31
2018-05-11T06:50:35.051Z,52.34
2018-05-11T06:52:46.215Z,51.01
2018-05-11T06:54:57.382Z,50.25
2018-05-11T06:57:10.447Z,50.24
2018-05-11T06:59:21.664Z,49.02
2018-05-11T07:01:32.862Z,48.62
2018-05-11T07:03:43.996Z,48.33
2018-05-11T07:05:55.131Z,48.76
2018-05-11T07:08:06.377Z,48.41
2018-05-11T07:10:17.599Z,47.58
2018-05-11T07:12:28.723Z,48.47
2018-05-11T07:14:40.044Z,46.05
2018-05-11T07:16:51.281Z,45.39
2018-05-11T07:19:02.413Z,46.39
2018-05-11T07:21:13.567Z,44.62
2018-05-11T07:23:24.687Z,44.79
2018-05-11T07:25:35.943Z,44.90
2018-05-11T07:27:47.034Z,45.40
2018-05-11T07:29:58.165Z,44.56
2018-05-11T07:32:09.294Z,44.65
2018-05-11T07:34:20.438Z,43.38
2018-05-11T07:36:31.672Z,44.80
2018-05-11T07:38:42.793Z,44.22
2018-05-11T07:40:53.983Z,43.60
2018-05-11T07:43:05.133Z,43.07
2018-05-11T07:45:16.333Z,44.37
2018-05-11T07:47:27.488Z,43.68
2018-05-11T07:49:38.591Z,44.90
2018-05-11T07:51:49.754Z,44.74
2018-05-11T07:54:00.854Z,45.85
2018-05-11T07:56:12.956Z,46.93
2018-05-11T07:58:24.263Z,47.96
2018-05-11T08:00:35.397Z,47.94
2018-05-11T08:02:46.751Z,47.24
2018-05-11T08:04:57.898Z,47.77
2018-05-11T08:07:09.091Z,47.67
2018-05-11T08:09:20.284Z,48.02
2018-05-11T08:11:31.420Z,46.29
2018-05-11T08:13:42.563Z,44.41
2018-05-11T08:15:53.748Z,45.77
2018-05-11T08:18:04.917Z,46.23
2018-05-11T08:20:16.230Z,45.29
2018-05-11T08:22:27.384Z,46.58
2018-05-11T08:24:38.627Z,46.05
2018-05-11T08:26:49.812Z,47.39
2018-05-11T08:29:00.880Z,46.95
2018-05-11T08:31:11.998Z,47.73
2018-05-11T08:33:23.139Z,46.73
2018-05-11T08:35:34.332Z,46.51
2018-05-11T08:37:45.481Z,45.97
2018-05-11T08:39:56.610Z,47.48
2018-05-11T08:42:07.743Z,48.50
2018-05-11T08:44:18.902Z,47.93
2018-05-11T08:46:30.063Z,48.26
2018-05-11T08:48:41.164Z,48.52
2018-05-11T08:50:52.583Z,49.76
2018-05-11T08:53:03.699Z,48.69
2018-05-11T08:55:14.839Z,47.92
2018-05-11T08:57:26.014Z,48.89
2018-05-11T08:59:37.167Z,48.64
2018-05-11T09:01:48.358Z,48.71
2018-05-11T09:03:59.571Z,49.03
2018-05-11T09:06:10.723Z,49.07
2018-05-11T09:08:22.030Z,46.29
2018-05-11T09:10:33.090Z,45.08
2018-05-11T09:12:44.243Z,46.43
2018-05-11T09:14:55.546Z,42.73
2018-05-11T09:17:06.754Z,44.38
2018-05-11T09:19:17.855Z,45.47
2018-05-11T09:21:29.011Z,45.88
2018-05-11T09:23:40.153Z,45.84
2018-05-11T09:25:51.301Z,45.35
2018-05-11T09:28:03.568Z,43.65
2018-05-11T09:30:14.891Z,44.45
2018-05-11T09:32:26.070Z,45.08
2018-05-11T09:34:37.174Z,43.44
2018-05-11T09:36:48.315Z,42.71
2018-05-11T09:38:59.491Z,42.06
2018-05-11T09:41:10.693Z,42.77
2018-05-11T09:43:21.790Z,42.56
2018-05-11T09:45:32.918Z,42.83
2018-05-11T09:47:44.157Z,44.51
2018-05-11T09:49:55.319Z,45.22
2018-05-11T09:52:06.475Z,43.60
2018-05-11T09:54:17.675Z,43.48
2018-05-11T09:56:30.225Z,43.87
2018-05-11T09:58:41.362Z,43.65
2018-05-11T10:00:52.480Z,43.23
2018-05-11T10:03:03.686Z,43.28
2018-05-11T10:05:14.875Z,42.98
2018-05-11T10:07:26.112Z,44.53
2018-05-11T10:09:37.362Z,44.05
2018-05-11T10:11:48.575Z,44.38
2018-05-11T10:13:59.779Z,45.38
2018-05-11T10:16:11.208Z,45.42
2018-05-11T10:18:22.512Z,44.26
2018-05-11T10:20:33.701Z,43.33
2018-05-11T10:22:44.966Z,43.46
2018-05-11T10:24:56.201Z,43.48
2018-05-11T10:27:08.757Z,42.18
2018-05-11T10:29:20.020Z,42.83
2018-05-11T10:31:31.150Z,42.94
2018-05-11T10:33:42.513Z,42.91
2018-05-11T10:35:53.677Z,42.85
2018-05-11T10:38:04.870Z,43.66
2018-05-11T10:40:16.095Z,42.28
2018-05-11T10:42:27.233Z,41.56
2018-05-11T10:44:38.569Z,40.91
2018-05-11T10:46:49.741Z,40.63
2018-05-11T10:49:01.036Z,41.67
2018-05-11T10:51:12.190Z,41.29
2018-05-11T10:53:23.290Z,43.68
2018-05-11T10:55:34.511Z,41.92
2018-05-11T10:57:45.655Z,40.81
2018-05-11T10:59:56.749Z,40.47
2018-05-11T11:02:08.595Z,41.34
2018-05-11T11:04:19.708Z,41.90
2018-05-11T11:06:30.862Z,41.47
2018-05-11T11:08:42.017Z,38.99
2018-05-11T11:10:53.270Z,41.06
2018-05-11T11:13:04.452Z,39.39
2018-05-11T11:15:15.604Z,39.37
2018-05-11T11:17:26.850Z,38.75
2018-05-11T11:19:38.004Z,40.57
2018-05-11T11:21:49.188Z,39.80
2018-05-11T11:24:00.292Z,39.18
2018-05-11T11:26:11.427Z,40.32
2018-05-11T11:28:22.588Z,40.64
2018-05-11T11:30:33.699Z,41.04
2018-05-11T11:32:44.938Z,40.34
2018-05-11T11:34:57.082Z,40.82
2018-05-11T11:37:08.280Z,42.42
2018-05-11T11:39:19.409Z,40.27
2018-05-11T11:41:30.563Z,38.74
2018-05-11T11:43:41.759Z,39.56
2018-05-11T11:45:52.930Z,38.71
2018-05-11T11:48:04.114Z,39.85
2018-05-11T11:50:15.299Z,39.57
2018-05-11T11:52:26.467Z,39.06
2018-05-11T11:54:37.958Z,40.41
2018-05-11T11:56:49.504Z,40.63
2018-05-11T11:59:00.726Z,41.26
2018-05-11T12:01:11.891Z,41.39
2018-05-11T12:03:26.535Z,41.04
2018-05-11T12:05:37.749Z,40.21
2018-05-11T12:07:49.126Z,41.42
2018-05-11T12:10:00.358Z,41.22
2018-05-11T12:12:11.646Z,40.41
2018-05-11T12:14:23.666Z,40.32
2018-05-11T12:16:35.979Z,41.04
2018-05-11T12:18:47.206Z,39.29
2018-05-11T12:20:58.618Z,39.20
2018-05-11T12:23:09.747Z,39.42
2018-05-11T12:25:21.963Z,40.83
2018-05-11T12:27:33.126Z,40.11
2018-05-11T12:29:44.568Z,40.75
2018-05-11T12:31:58.587Z,39.96
2018-05-11T12:34:11.374Z,40.53
2018-05-11T12:36:22.546Z,42.38
2018-05-11T12:38:33.709Z,42.32
2018-05-11T12:40:44.972Z,41.53
2018-05-11T12:42:56.085Z,41.60
2018-05-11T12:45:07.304Z,42.46
2018-05-11T12:47:18.471Z,40.09
2018-05-11T12:49:30.693Z,42.26
2018-05-11T12:51:41.919Z,42.43
2018-05-11T12:53:53.180Z,41.52
2018-05-11T12:56:04.280Z,40.54
2018-05-11T12:58:15.587Z,41.92
2018-05-11T13:00:26.707Z,41.20
2018-05-11T13:02:37.838Z,41.05
2018-05-11T13:04:49.009Z,41.69
2018-05-11T13:07:00.147Z,41.73
2018-05-11T13:09:11.992Z,42.33
2018-05-11T13:11:23.131Z,42.40
2018-05-11T13:13:34.278Z,42.97
2018-05-11T13:15:45.442Z,40.82
2018-05-11T13:17:56.538Z,40.45
2018-05-11T13:20:07.713Z,40.69
2018-05-11T13:22:18.872Z,41.87
2018-05-11T13:24:31.677Z,41.96
2018-05-11T13:26:42.854Z,42.34
2018-05-11T13:28:53.991Z,41.82
2018-05-11T13:31:06.175Z,41.18
2018-05-11T13:33:17.351Z,42.28
2018-05-11T13:35:28.539Z,40.97
2018-05-11T13:37:39.906Z,42.01
2018-05-11T13:39:51.951Z,42.30
2018-05-11T13:42:03.230Z,41.42
2018-05-11T13:44:14.494Z,42.99
2018-05-11T13:46:25.781Z,42.59
2018-05-11T13:48:36.932Z,42.13
2018-05-11T13:50:48.070Z,41.85
2018-05-11T13:52:59.351Z,41.97
2018-05-11T13:55:10.499Z,41.38
2018-05-11T13:57:23.829Z,41.50
2018-05-11T13:59:35.071Z,41.90
2018-05-11T14:01:46.447Z,41.79
2018-05-11T14:03:57.678Z,42.65
2018-05-11T14:06:08.823Z,41.70
2018-05-11T14:08:20.295Z,43.20
2018-05-11T14:10:31.537Z,42.67
2018-05-11T14:12:42.693Z,41.88
2018-05-11T14:14:54.032Z,41.76
2018-05-11T14:17:05.146Z,42.52
2018-05-11T14:19:16.378Z,42.26
2018-05-11T14:21:28.808Z,41.39
2018-05-11T14:23:40.035Z,42.18
2018-05-11T14:25:54.012Z,42.20
2018-05-11T14:28:05.247Z,41.57
2018-05-11T14:30:16.597Z,42.06
2018-05-11T14:32:28.023Z,41.14
2018-05-11T14:34:39.354Z,41.11
2018-05-11T14:36:50.619Z,40.59
2018-05-11T14:39:01.780Z,41.05
2018-05-11T14:41:13.088Z,41.63
2018-05-11T14:43:24.275Z,41.43
2018-05-11T14:45:35.853Z,41.43
2018-05-11T14:47:47.753Z,42.11
2018-05-11T14:49:58.968Z,41.65
2018-05-11T14:52:10.785Z,41.96
2018-05-11T14:54:22.016Z,42.19
2018-05-11T14:56:34.243Z,41.51
2018-05-11T14:58:45.460Z,42.01
2018-05-11T15:00:56.615Z,42.20
2018-05-11T15:03:08.351Z,41.55
2018-05-11T15:05:19.454Z,41.44
2018-05-11T15:07:30.631Z,41.68
2018-05-11T15:09:42.034Z,41.62
2018-05-11T15:11:53.175Z,41.68
2018-05-11T15:14:04.586Z,41.63
2018-05-11T15:16:15.871Z,41.77
2018-05-11T15:18:27.493Z,41.93
2018-05-11T15:20:38.768Z,41.98
2018-05-11T15:22:52.813Z,42.80
2018-05-11T15:25:06.887Z,42.83
2018-05-11T15:27:18.127Z,42.49
2018-05-11T15:29:29.349Z,42.64
2018-05-11T15:31:40.607Z,43.21
2018-05-11T15:33:51.844Z,42.86
2018-05-11T15:36:04.696Z,41.82
2018-05-11T15:38:15.857Z,42.43
2018-05-11T15:40:27.602Z,42.35
2018-05-11T15:42:38.734Z,42.97
2018-05-11T15:44:49.954Z,43.17
2018-05-11T15:47:01.141Z,43.01
2018-05-11T15:49:12.351Z,43.31
2018-05-11T15:51:24.126Z,43.56
2018-05-11T15:53:35.311Z,43.72
2018-05-11T15:55:46.733Z,43.21
2018-05-11T15:57:57.899Z,43.10
2018-05-11T16:00:11.594Z,43.22
2018-05-11T16:02:22.791Z,43.26
2018-05-11T16:04:34.213Z,43.30
2018-05-11T16:06:45.395Z,43.69
2018-05-11T16:08:57.734Z,43.24
2018-05-11T16:11:08.943Z,43.64
2018-05-11T16:13:21.476Z,44.10
2018-05-11T16:15:33.198Z,43.96
2018-05-11T16:17:44.505Z,44.75
2018-05-11T16:19:55.787Z,44.01
2018-05-11T16:22:07.903Z,43.97
2018-05-11T16:24:19.068Z,44.66
2018-05-11T16:26:30.410Z,45.05
2018-05-11T16:28:44.419Z,44.96
2018-05-11T16:30:58.526Z,44.51
2018-05-11T16:33:09.751Z,43.97
2018-05-11T16:35:21.003Z,44.47
2018-05-11T16:37:33.294Z,43.96
2018-05-11T16:39:44.490Z,44.02
2018-05-11T16:41:58.044Z,43.95
2018-05-11T16:44:09.261Z,43.51
2018-05-11T16:46:20.599Z,43.25
2018-05-11T16:48:31.770Z,43.55
2018-05-11T16:50:43.898Z,43.62
2018-05-11T16:52:55.223Z,43.91
2018-05-11T16:55:06.447Z,43.04
2018-05-11T16:57:17.639Z,43.82
2018-05-11T16:59:28.815Z,43.64
2018-05-11T17:01:39.943Z,43.61
2018-05-11T17:03:52.812Z,43.70
2018-05-11T17:06:03.933Z,44.64
2018-05-11T17:08:15.136Z,44.23
2018-05-11T17:10:26.338Z,43.76
2018-05-11T17:12:37.495Z,43.70
2018-05-11T17:14:48.746Z,43.51
2018-05-11T17:16:59.967Z,43.42
2018-05-11T17:19:11.109Z,43.50
2018-05-11T17:21:22.385Z,43.61
2018-05-11T17:23:33.530Z,43.85
2018-05-11T17:25:44.734Z,43.84
2018-05-11T17:28:02.526Z,43.88
2018-05-11T17:30:13.682Z,43.94
2018-05-11T17:32:24.944Z,43.90
2018-05-11T17:34:36.255Z,44.12
2018-05-11T17:36:47.443Z,44.68
2018-05-11T17:38:58.643Z,45.02
2018-05-11T17:41:09.924Z,44.75
2018-05-11T17:43:21.200Z,45.22
2018-05-11T17:45:32.345Z,45.93
2018-05-11T17:47:43.506Z,45.87
2018-05-11T17:49:54.638Z,45.50
2018-05-11T17:52:05.825Z,45.34
2018-05-11T17:54:16.982Z,44.85
2018-05-11T17:56:28.123Z,44.94
2018-05-11T17:58:39.261Z,45.21
2018-05-11T18:00:50.539Z,45.44
2018-05-11T18:03:01.761Z,45.51
2018-05-11T18:05:13.134Z,45.57
2018-05-11T18:07:24.431Z,45.79
2018-05-11T18:09:35.582Z,46.10
2018-05-11T18:11:46.868Z,46.07
2018-05-11T18:13:58.051Z,46.46
2018-05-11T18:16:09.264Z,46.56
2018-05-11T18:18:20.440Z,46.91
2018-05-11T18:20:33.436Z,47.19
2018-05-11T18:22:44.630Z,47.26
2018-05-11T18:24:55.753Z,47.42
2018-05-11T18:27:06.972Z,47.49
2018-05-11T18:29:18.099Z,47.62
2018-05-11T18:31:29.223Z,47.85
2018-05-11T18:33:40.454Z,47.95
2018-05-11T18:35:51.566Z,48.15
2018-05-11T18:38:02.772Z,48.41
2018-05-11T18:40:14.040Z,48.64
2018-05-11T18:42:25.135Z,48.78
2018-05-11T18:44:36.268Z,48.96
2018-05-11T18:46:47.416Z,49.38
2018-05-11T18:48:58.569Z,50.22
2018-05-11T18:51:09.714Z,50.81
2018-05-11T18:53:21.200Z,51.71
2018-05-11T18:55:32.162Z,52.33
2018-05-11T18:57:43.415Z,53.25
2018-05-11T18:59:54.578Z,53.58
2018-05-11T19:02:05.792Z,54.17
2018-05-11T19:04:16.999Z,54.47
2018-05-11T19:06:28.139Z,54.85
2018-05-11T19:08:39.483Z,55.21
2018-05-11T19:10:50.634Z,55.73
2018-05-11T19:13:01.831Z,55.93
2018-05-11T19:15:13.000Z,56.30
2018-05-11T19:17:24.166Z,56.56
2018-05-11T19:19:35.360Z,56.22
2018-05-11T19:21:46.526Z,56.57
2018-05-11T19:23:57.652Z,56.30
2018-05-11T19:26:08.907Z,56.74
2018-05-11T19:28:20.057Z,56.62
2018-05-11T19:30:31.306Z,56.25
2018-05-11T19:32:42.509Z,56.31
2018-05-11T19:34:53.725Z,56.47
2018-05-11T19:37:05.011Z,56.64
2018-05-11T19:39:16.196Z,56.70
2018-05-11T19:41:27.483Z,56.87
2018-05-11T19:43:38.760Z,56.94
2018-05-11T19:45:49.968Z,56.99
2018-05-11T19:48:01.210Z,56.88
2018-05-11T19:50:12.372Z,57.12
2018-05-11T19:52:23.551Z,57.04
2018-05-11T19:54:34.777Z,57.11
2018-05-11T19:56:45.967Z,57.60
2018-05-11T19:58:57.219Z,58.06
2018-05-11T20:01:08.390Z,58.86
2018-05-11T20:03:19.599Z,59.04
2018-05-11T20:05:30.949Z,59.30
2018-05-11T20:07:42.164Z,59.50
2018-05-11T20:09:53.484Z,59.66
2018-05-11T20:12:04.820Z,59.52
2018-05-11T20:14:16.087Z,59.66
2018-05-11T20:16:27.271Z,60.12
2018-05-11T20:18:38.513Z,60.31
2018-05-11T20:20:49.817Z,60.17
2018-05-11T20:23:01.280Z,60.78
2018-05-11T20:25:12.544Z,60.88
2018-05-11T20:27:23.883Z,60.95
2018-05-11T20:29:35.170Z,60.87
2018-05-11T20:31:46.546Z,60.98
2018-05-11T20:33:57.747Z,60.95
2018-05-11T20:36:08.916Z,61.37
2018-05-11T20:38:20.113Z,61.26
2018-05-11T20:40:31.320Z,61.04
2018-05-11T20:42:42.509Z,61.18
2018-05-11T20:44:53.708Z,61.30
2018-05-11T20:47:04.967Z,61.37
2018-05-11T20:49:16.167Z,61.42
2018-05-11T20:51:27.439Z,61.53
2018-05-11T20:53:38.671Z,61.39
2018-05-11T20:55:49.968Z,61.25
2018-05-11T20:58:01.233Z,61.18
2018-05-11T21:00:12.429Z,61.64
2018-05-11T21:02:23.720Z,61.48
2018-05-11T21:04:35.028Z,61.42
2018-05-11T21:06:46.632Z,61.66
2018-05-11T21:08:57.919Z,61.61
2018-05-11T21:11:09.212Z,61.76
2018-05-11T21:13:20.469Z,61.70
2018-05-11T21:15:31.663Z,61.86
2018-05-11T21:17:42.878Z,61.94
2018-05-11T21:19:54.143Z,61.88
2018-05-11T21:22:05.400Z,62.01
2018-05-11T21:24:16.602Z,62.11
2018-05-11T21:26:27.843Z,62.33
2018-05-11T21:28:39.017Z,62.69
2018-05-11T21:30:53.313Z,62.73
2018-05-11T21:33:04.504Z,62.79
2018-05-11T21:35:15.722Z,62.99
2018-05-11T21:37:26.895Z,62.92
2018-05-11T21:39:38.133Z,63.21
2018-05-11T21:41:49.426Z,63.19
2018-05-11T21:44:00.711Z,63.00
2018-05-11T21:46:11.952Z,63.05
2018-05-11T21:48:23.115Z,62.94
2018-05-11T21:50:34.351Z,62.91
2018-05-11T21:52:45.476Z,62.89
2018-05-11T21:54:56.670Z,63.16
2018-05-11T21:57:07.866Z,63.16
2018-05-11T21:59:19.052Z,63.37
2018-05-11T22:01:30.232Z,63.33
2018-05-11T22:03:41.391Z,63.52
2018-05-11T22:05:52.604Z,63.44
2018-05-11T22:08:03.836Z,63.43
2018-05-11T22:10:15.003Z,63.62
2018-05-11T22:12:26.274Z,63.72
2018-05-11T22:14:37.562Z,63.50
2018-05-11T22:16:49.716Z,63.72
2018-05-11T22:19:00.945Z,63.84
2018-05-11T22:21:12.207Z,64.25
2018-05-11T22:23:23.410Z,64.27
2018-05-11T22:25:34.594Z,64.35
2018-05-11T22:27:45.808Z,64.28
2018-05-11T22:29:57.013Z,64.08
2018-05-11T22:32:08.324Z,64.13
2018-05-11T22:34:19.757Z,64.07
2018-05-11T22:36:30.863Z,63.83
2018-05-11T22:38:42.008Z,63.68
2018-05-11T22:40:53.139Z,63.69
2018-05-11T22:43:04.349Z,63.48
2018-05-11T22:45:16.684Z,63.77
2018-05-11T22:47:27.878Z,63.90
2018-05-11T22:49:39.096Z,63.99
2018-05-11T22:51:50.235Z,64.01
2018-05-11T22:54:01.436Z,63.80
2018-05-11T22:56:12.595Z,63.84
2018-05-11T22:58:23.918Z,64.15
2018-05-11T23:00:36.105Z,64.38
2018-05-11T23:02:47.255Z,64.46
2018-05-11T23:04:58.386Z,64.70
2018-05-11T23:07:09.596Z,64.51
2018-05-11T23:09:20.791Z,64.48
2018-05-11T23:11:32.056Z,64.35
2018-05-11T23:13:43.267Z,64.26
2018-05-11T23:15:54.483Z,64.28
2018-05-11T23:18:05.681Z,64.19
2018-05-11T23:20:16.864Z,64.12
2018-05-11T23:22:28.043Z,64.07
2018-05-11T23:24:40.159Z,64.17
2018-05-11T23:26:51.356Z,64.30
2018-05-11T23:29:02.543Z,64.46
2018-05-11T23:31:13.670Z,64.32
2018-05-11T23:33:24.816Z,64.22
2018-05-11T23:35:35.936Z,64.31
2018-05-11T23:37:47.168Z,64.27
2018-05-11T23:39:58.423Z,63.97
2018-05-11T23:42:09.627Z,64.04
2018-05-11T23:44:20.803Z,64.26
2018-05-11T23:46:31.974Z,64.40
2018-05-11T23:48:43.866Z,64.30
2018-05-11T23:50:55.079Z,64.49
2018-05-11T23:53:06.369Z,64.27
2018-05-11T23:55:17.633Z,64.73
2018-05-11T23:57:28.776Z,64.66
2018-05-11T23:59:39.970Z,64.60
